Time;durP1;ratioP1;P1;durP2;ratioP2;P2;SDS_P1;SDS_P2;PMS_P1;PMS_P2;Temp;Humidity;BMP_temperature;BMP_pressure;BME280_temperature;BME280_humidity;BME280_pressure;Samples;Min_cycle;Max_cycle;Signal;HPM_P1;HPM_P2
2023/01/04 00:01:04;;;;;;;2.70;1.10;;;9.50;99.90;;;;;;5093878;28;20198;-79
2023/01/04 00:03:30;;;;;;;2.83;1.10;;;9.60;99.90;;;;;;5093985;28;20178;-78
2023/01/04 00:06:01;;;;;;;2.90;1.07;;;9.60;99.90;;;;;;5075524;28;20244;-79
2023/01/04 00:08:28;;;;;;;1.30;0.80;;;9.50;99.90;;;;;;5074766;28;20184;-79
2023/01/04 00:11:18;;;;;;;2.93;1.17;;;9.60;99.90;;;;;;5075517;28;20702;-79
2023/01/04 00:13:45;;;;;;;2.83;1.20;;;9.60;99.90;;;;;;5075727;28;20173;-79
2023/01/04 00:16:22;;;;;;;2.27;1.20;;;9.60;99.90;;;;;;5094216;28;20181;-78
2023/01/04 00:18:49;;;;;;;2.07;0.90;;;9.70;99.90;;;;;;5093725;28;20536;-77
2023/01/04 00:21:27;;;;;;;1.53;0.70;;;9.60;99.90;;;;;;5075112;28;20327;-76
2023/01/04 00:23:55;;;;;;;2.87;0.80;;;9.60;99.90;;;;;;5075454;28;20292;-76
2023/01/04 00:26:24;;;;;;;2.93;1.00;;;9.60;99.90;;;;;;5092973;28;20266;-76
2023/01/04 00:28:58;;;;;;;1.83;0.90;;;9.70;99.90;;;;;;5075394;28;20175;-77
2023/01/04 00:31:26;;;;;;;2.40;0.93;;;9.70;99.90;;;;;;5075123;28;20187;-76
2023/01/04 00:33:59;;;;;;;2.27;1.10;;;9.70;99.90;;;;;;5093367;28;20163;-76
2023/01/04 00:36:26;;;;;;;1.50;0.80;;;9.70;99.90;;;;;;5075064;28;20618;-76
2023/01/04 00:39:08;;;;;;;4.90;0.90;;;9.70;99.90;;;;;;5075220;28;20175;-76
2023/01/04 00:41:36;;;;;;;3.27;1.00;;;9.70;99.90;;;;;;5074770;28;20257;-76
2023/01/04 00:44:03;;;;;;;3.70;0.90;;;9.70;99.90;;;;;;5075180;28;20255;-76
2023/01/04 00:46:31;;;;;;;2.43;1.00;;;9.80;99.90;;;;;;5074652;28;20214;-76
2023/01/04 00:48:57;;;;;;;1.80;0.80;;;9.80;99.90;;;;;;5074981;28;20183;-76
2023/01/04 00:51:23;;;;;;;3.67;1.17;;;9.80;99.90;;;;;;5074892;28;20239;-75
2023/01/04 00:53:48;;;;;;;1.87;1.00;;;9.70;99.90;;;;;;5074965;28;20171;-76
2023/01/04 00:56:14;;;;;;;3.47;1.30;;;9.80;99.90;;;;;;5074505;28;20174;-75
2023/01/04 00:58:40;;;;;;;2.07;1.10;;;9.80;99.90;;;;;;5093009;28;20178;-76
2023/01/04 01:01:08;;;;;;;2.63;1.00;;;9.90;99.90;;;;;;5074722;28;20171;-75
2023/01/04 01:03:34;;;;;;;2.70;0.90;;;9.80;99.90;;;;;;5092866;28;20670;-77
2023/01/04 01:06:08;;;;;;;1.77;1.10;;;9.80;99.90;;;;;;5074675;28;20205;-80
2023/01/04 01:08:35;;;;;;;2.03;0.90;;;9.90;99.90;;;;;;5093695;28;20173;-82
2023/01/04 01:11:08;;;;;;;4.80;1.30;;;9.80;99.90;;;;;;5074771;28;20174;-77
2023/01/04 01:13:34;;;;;;;2.50;1.13;;;9.90;99.90;;;;;;5093451;28;20896;-78
2023/01/04 01:16:08;;;;;;;2.37;0.97;;;9.90;99.90;;;;;;5075204;28;20182;-82
2023/01/04 01:18:35;;;;;;;3.23;1.50;;;9.90;99.90;;;;;;5094089;28;20182;-82
2023/01/04 01:21:14;;;;;;;3.33;1.40;;;9.90;99.90;;;;;;5097065;28;20230;-81
2023/01/04 01:23:42;;;;;;;2.20;0.90;;;9.90;99.90;;;;;;5079897;28;20233;-81
2023/01/04 01:26:13;;;;;;;5.03;1.40;;;9.90;99.90;;;;;;5080030;28;20683;-82
2023/01/04 01:28:39;;;;;;;4.93;1.40;;;9.90;99.90;;;;;;5098302;28;20166;-83
2023/01/04 01:31:12;;;;;;;4.57;1.27;;;9.90;99.90;;;;;;5097274;28;20188;-82
2023/01/04 01:33:39;;;;;;;3.40;1.20;;;9.90;99.90;;;;;;5079908;28;20170;-82
2023/01/04 01:36:07;;;;;;;3.40;1.00;;;9.90;99.90;;;;;;5098228;28;20167;-82
2023/01/04 01:38:35;;;;;;;2.83;0.90;;;9.90;99.90;;;;;;5097744;28;20170;-82
2023/01/04 01:41:04;;;;;;;1.90;1.20;;;10.10;99.90;;;;;;5079670;28;20247;-83
2023/01/04 01:44:01;;;;;;;1.63;1.10;;;10.10;99.90;;;;;;5079912;28;20246;-82
2023/01/04 01:46:37;;;;;;;2.33;1.10;;;10.10;99.90;;;;;;5079830;28;20626;-82
2023/01/04 01:49:24;;;;;;;2.63;1.10;;;10.10;99.90;;;;;;5080097;28;20177;-82
2023/01/04 01:51:51;;;;;;;2.53;1.07;;;10.00;99.90;;;;;;5079941;28;20169;-84
2023/01/04 01:54:25;;;;;;;7.00;1.23;;;10.10;99.90;;;;;;5079826;28;20171;-84
2023/01/04 01:56:55;;;;;;;2.77;1.40;;;10.10;99.90;;;;;;5080057;28;20205;-83
2023/01/04 01:59:21;;;;;;;5.33;1.63;;;10.10;99.90;;;;;;5079450;28;20174;-83
2023/01/04 02:01:47;;;;;;;1.77;1.53;;;10.10;99.90;;;;;;5079691;28;20184;-81
2023/01/04 02:04:14;;;;;;;2.57;1.40;;;10.20;99.90;;;;;;5078508;28;20170;-82
2023/01/04 02:06:45;;;;;;;3.17;1.40;;;10.30;99.90;;;;;;5096502;28;20658;-83
2023/01/04 02:09:12;;;;;;;3.20;1.53;;;10.20;99.90;;;;;;5078729;28;20175;-82
2023/01/04 02:11:37;;;;;;;3.47;1.90;;;10.20;99.90;;;;;;5097291;28;20235;-82
2023/01/04 02:17:19;;;;;;;2.23;1.23;;;10.30;99.90;;;;;;5096931;28;20593;-82
2023/01/04 02:20:04;;;;;;;4.03;1.70;;;10.30;99.90;;;;;;5077946;28;20178;-83
2023/01/04 02:22:51;;;;;;;2.57;1.57;;;10.30;99.90;;;;;;5095742;28;20191;-82
2023/01/04 02:25:57;;;;;;;1.57;1.47;;;10.40;99.90;;;;;;5095829;28;20206;-82
2023/01/04 02:29:01;;;;;;;3.93;2.23;;;10.40;99.90;;;;;;5015205;28;20229;-83
2023/01/04 02:31:48;;;;;;;2.23;1.43;;;10.40;99.90;;;;;;5077379;28;20193;-82
2023/01/04 02:34:35;;;;;;;1.93;1.60;;;10.50;99.90;;;;;;5096336;28;20181;-82
2023/01/04 02:37:19;;;;;;;4.53;1.90;;;10.60;99.90;;;;;;5096486;28;20257;-82
2023/01/04 02:40:09;;;;;;;3.50;2.17;;;10.50;99.90;;;;;;5077749;28;20185;-82
2023/01/04 02:45:39;;;;;;;7.63;1.87;;;10.50;99.90;;;;;;5095874;28;20233;-82
2023/01/04 02:50:59;;;;;;;4.23;2.27;;;10.60;99.90;;;;;;5095909;28;20170;-83
2023/01/04 02:53:36;;;;;;;4.10;1.60;;;10.60;99.90;;;;;;5077419;28;20265;-82
2023/01/04 02:56:17;;;;;;;3.03;2.23;;;10.60;99.90;;;;;;5095745;28;20212;-83
2023/01/04 02:59:02;;;;;;;3.43;1.87;;;10.60;99.90;;;;;;5095521;28;20186;-83
2023/01/04 03:07:52;;;;;;;5.20;1.77;;;10.70;99.90;;;;;;5095578;28;20723;-81
2023/01/04 03:10:27;;;;;;;4.93;1.63;;;10.70;99.90;;;;;;5077068;28;20192;-81
2023/01/04 03:13:01;;;;;;;5.17;1.80;;;10.70;99.90;;;;;;5095167;28;20533;-81
2023/01/04 03:15:32;;;;;;;3.23;1.50;;;10.70;99.90;;;;;;5076865;28;20183;-80
2023/01/04 03:18:14;;;;;;;7.27;2.27;;;10.80;99.90;;;;;;5077292;28;20711;-81
2023/01/04 03:20:41;;;;;;;3.40;1.73;;;10.90;99.90;;;;;;5094832;28;20175;-80
2023/01/04 03:37:29;;;;;;;5.47;1.37;;;10.90;99.90;;;;;;5095222;28;20186;-82
2023/01/04 03:49:28;;;;;;;3.73;1.60;;;11.00;99.90;;;;;;5094490;28;20232;-82
2023/01/04 03:51:57;;;;;;;1.30;1.10;;;11.10;99.90;;;;;;5076115;28;20174;-81
2023/01/04 03:54:31;;;;;;;2.47;1.43;;;11.10;99.90;;;;;;5094046;28;20636;-82
2023/01/04 03:56:59;;;;;;;3.33;1.23;;;11.10;99.90;;;;;;5094230;28;20663;-80
2023/01/04 03:59:24;;;;;;;3.27;1.27;;;11.10;99.90;;;;;;5078727;28;20178;-80
2023/01/04 04:01:51;;;;;;;2.83;1.30;;;11.20;99.90;;;;;;5094282;28;20174;-81
2023/01/04 04:09:46;;;;;;;3.73;1.50;;;11.10;99.90;;;;;;5094497;28;20227;-81
2023/01/04 04:12:12;;;;;;;5.47;1.30;;;11.10;99.90;;;;;;5076130;28;20171;-80
2023/01/04 04:14:37;;;;;;;3.30;1.23;;;11.10;99.90;;;;;;5094028;28;20189;-80
2023/01/04 04:17:03;;;;;;;2.47;1.10;;;11.20;99.90;;;;;;5076013;28;20174;-81
2023/01/04 04:19:28;;;;;;;2.27;1.30;;;11.20;99.90;;;;;;5076110;28;20171;-81
2023/01/04 04:21:54;;;;;;;5.93;1.30;;;11.30;99.90;;;;;;5094310;28;20208;-81
2023/01/04 04:24:25;;;;;;;2.73;1.30;;;11.20;99.90;;;;;;5094350;28;20175;-81
2023/01/04 04:26:53;;;;;;;2.13;0.93;;;11.30;99.90;;;;;;5075645;28;20209;-80
2023/01/04 04:29:21;;;;;;;3.77;1.43;;;11.40;99.90;;;;;;5093918;28;20170;-80
2023/01/04 04:31:46;;;;;;;5.63;1.10;;;11.30;99.90;;;;;;5093521;28;20262;-80
2023/01/04 04:34:12;;;;;;;2.17;0.97;;;11.40;99.90;;;;;;5075964;28;20255;-80
2023/01/04 04:36:38;;;;;;;2.40;1.17;;;11.40;99.90;;;;;;5075890;28;20179;-80
2023/01/04 04:39:04;;;;;;;3.43;1.03;;;11.30;99.90;;;;;;5093795;28;20640;-80
2023/01/04 04:41:37;;;;;;;4.20;1.23;;;11.40;99.90;;;;;;5075293;28;20273;-80
2023/01/04 04:44:05;;;;;;;4.73;1.00;;;11.50;99.90;;;;;;5093697;28;20163;-80
2023/01/04 04:46:30;;;;;;;2.17;1.03;;;11.50;99.90;;;;;;5093429;28;20247;-79
2023/01/04 04:48:56;;;;;;;3.10;0.97;;;11.40;99.90;;;;;;5075634;28;20179;-79
2023/01/04 04:51:23;;;;;;;1.23;0.80;;;11.50;99.90;;;;;;5093286;28;20170;-80
2023/01/04 04:53:49;;;;;;;3.23;0.80;;;11.40;99.90;;;;;;5093239;28;20632;-79
2023/01/04 04:56:16;;;;;;;3.33;0.90;;;11.50;99.90;;;;;;5074924;28;20178;-79
2023/01/04 04:58:43;;;;;;;2.23;0.80;;;11.60;99.90;;;;;;5093436;28;20185;-79
2023/01/04 05:01:09;;;;;;;2.10;0.83;;;11.60;99.90;;;;;;5092987;28;20191;-79
2023/01/04 05:03:34;;;;;;;2.13;0.83;;;11.70;99.90;;;;;;5093138;28;20213;-79
2023/01/04 05:06:01;;;;;;;1.00;0.63;;;11.60;99.90;;;;;;5092813;28;20214;-79
2023/01/04 05:08:26;;;;;;;2.10;0.67;;;11.60;99.90;;;;;;5093541;28;20190;-79
2023/01/04 05:10:52;;;;;;;2.80;0.70;;;11.70;99.90;;;;;;5074796;28;20563;-79
2023/01/04 05:13:17;;;;;;;1.30;0.60;;;11.70;99.90;;;;;;5093077;28;20202;-79
2023/01/04 05:15:46;;;;;;;2.13;0.80;;;11.60;99.90;;;;;;5074530;28;20187;-79
2023/01/04 05:18:15;;;;;;;2.77;0.80;;;11.70;99.90;;;;;;5093058;28;20182;-79
2023/01/04 05:20:41;;;;;;;2.03;0.77;;;11.70;99.90;;;;;;5093116;28;20176;-79
2023/01/04 05:23:10;;;;;;;1.17;0.43;;;11.70;99.90;;;;;;5074855;28;20273;-79
2023/01/04 05:25:36;;;;;;;0.70;0.57;;;11.80;99.90;;;;;;5092961;28;20205;-79
2023/01/04 05:28:02;;;;;;;1.90;0.70;;;11.70;99.90;;;;;;5092975;28;20179;-79
2023/01/04 05:33:12;;;;;;;1.87;0.60;;;11.70;99.90;;;;;;5093223;28;20228;-79
2023/01/04 05:35:38;;;;;;;2.53;0.70;;;11.70;99.90;;;;;;5093011;28;20179;-79
2023/01/04 05:38:04;;;;;;;3.73;0.70;;;11.70;99.90;;;;;;5092946;28;20178;-79
2023/01/04 05:40:30;;;;;;;2.30;1.17;;;11.70;99.90;;;;;;5092880;28;20187;-79
2023/01/04 05:42:56;;;;;;;2.60;0.60;;;11.80;99.90;;;;;;5092579;28;20854;-79
2023/01/04 05:45:22;;;;;;;2.83;0.63;;;11.80;99.90;;;;;;5092260;28;20207;-79
2023/01/04 05:47:49;;;;;;;1.57;0.50;;;11.80;99.90;;;;;;5092497;28;20213;-78
2023/01/04 05:50:15;;;;;;;1.07;0.80;;;11.90;99.90;;;;;;5092868;28;20498;-79
2023/01/04 05:52:41;;;;;;;1.17;0.60;;;11.80;99.90;;;;;;5092257;28;20171;-79
2023/01/04 05:55:07;;;;;;;3.00;0.77;;;11.90;99.90;;;;;;5092550;28;20548;-79
2023/01/04 05:57:33;;;;;;;1.83;0.60;;;12.00;99.90;;;;;;5074252;28;20263;-79
2023/01/04 05:59:58;;;;;;;3.13;0.80;;;12.00;99.90;;;;;;5092264;28;20177;-78
2023/01/04 06:02:28;;;;;;;3.23;0.63;;;12.10;99.90;;;;;;5092093;28;20171;-79
2023/01/04 06:04:53;;;;;;;1.93;0.83;;;12.10;99.90;;;;;;5092183;28;20178;-78
2023/01/04 06:07:20;;;;;;;2.53;1.00;;;12.00;99.90;;;;;;5093847;28;20540;-79
2023/01/04 06:09:46;;;;;;;1.80;0.50;;;12.00;99.90;;;;;;5095984;28;20618;-78
2023/01/04 06:12:13;;;;;;;2.87;1.10;;;12.10;99.90;;;;;;5096290;28;20270;-79
2023/01/04 06:14:40;;;;;;;3.57;0.80;;;12.10;99.90;;;;;;5095862;28;20179;-78
2023/01/04 06:17:07;;;;;;;2.37;0.60;;;12.00;99.90;;;;;;5096149;28;20170;-78
2023/01/04 06:19:33;;;;;;;1.90;0.70;;;11.90;99.90;;;;;;5077740;28;20208;-78
2023/01/04 06:21:58;;;;;;;2.63;0.70;;;11.90;99.90;;;;;;5095728;28;20650;-78
2023/01/04 06:24:24;;;;;;;2.17;0.70;;;11.70;99.90;;;;;;5095749;28;20258;-78
2023/01/04 06:26:49;;;;;;;2.13;1.00;;;11.70;99.90;;;;;;5077304;28;20228;-78
2023/01/04 06:29:15;;;;;;;2.57;0.80;;;11.60;99.90;;;;;;5095625;28;20224;-78
2023/01/04 06:31:41;;;;;;;2.10;0.90;;;11.60;99.90;;;;;;5077497;28;20191;-78
2023/01/04 06:34:09;;;;;;;3.70;0.70;;;11.60;99.90;;;;;;5077389;28;20228;-78
2023/01/04 06:36:35;;;;;;;1.60;0.70;;;11.60;99.90;;;;;;5095584;28;20547;-78
2023/01/04 06:39:01;;;;;;;2.83;0.50;;;11.70;99.90;;;;;;5077471;28;20186;-78
2023/01/04 06:41:26;;;;;;;2.10;0.80;;;11.70;99.90;;;;;;5095700;28;20171;-78
2023/01/04 06:43:52;;;;;;;2.23;0.80;;;11.80;99.90;;;;;;5077072;28;20174;-78
2023/01/04 06:46:18;;;;;;;1.17;0.40;;;11.70;99.90;;;;;;5095353;28;20190;-79
2023/01/04 06:48:44;;;;;;;4.40;0.80;;;11.70;99.90;;;;;;5077325;28;20198;-79
2023/01/04 06:51:10;;;;;;;0.73;0.57;;;11.70;99.90;;;;;;5077214;28;20239;-78
2023/01/04 06:53:37;;;;;;;1.67;0.70;;;11.70;99.90;;;;;;5095316;28;20171;-78
2023/01/04 06:56:02;;;;;;;1.37;0.60;;;11.80;99.90;;;;;;5077491;28;20186;-78
2023/01/04 06:58:28;;;;;;;3.33;0.67;;;11.80;99.90;;;;;;5076833;28;20174;-79
2023/01/04 07:00:54;;;;;;;1.40;0.60;;;11.90;99.90;;;;;;5095237;28;20173;-77
2023/01/04 07:03:21;;;;;;;1.83;0.87;;;11.90;99.90;;;;;;5077072;28;20674;-79
2023/01/04 07:05:47;;;;;;;3.23;0.87;;;11.80;99.90;;;;;;5095207;28;20199;-77
2023/01/04 07:08:14;;;;;;;4.53;0.77;;;11.90;99.90;;;;;;5076919;28;20206;-79
2023/01/04 07:10:40;;;;;;;3.30;1.03;;;11.90;99.90;;;;;;5094943;28;20239;-79
2023/01/04 07:13:07;;;;;;;2.40;0.60;;;11.90;99.90;;;;;;5094813;28;20182;-78
2023/01/04 07:15:33;;;;;;;3.40;0.80;;;12.00;99.90;;;;;;5094947;28;20179;-78
2023/01/04 07:18:00;;;;;;;2.23;1.03;;;12.00;99.90;;;;;;5076365;28;20178;-78
2023/01/04 07:20:26;;;;;;;3.27;0.80;;;12.00;99.90;;;;;;5094681;28;20170;-76
2023/01/04 07:22:52;;;;;;;1.70;0.97;;;12.10;99.90;;;;;;5094783;28;20236;-79
2023/01/04 07:25:19;;;;;;;1.23;0.40;;;12.10;99.90;;;;;;5094352;28;20573;-76
2023/01/04 07:27:49;;;;;;;2.20;0.67;;;12.10;99.90;;;;;;5094453;28;20231;-76
2023/01/04 07:30:14;;;;;;;3.27;0.70;;;12.10;99.90;;;;;;5076375;28;20184;-78
2023/01/04 07:32:40;;;;;;;3.47;0.70;;;12.20;99.90;;;;;;5094484;28;20168;-79
2023/01/04 07:35:06;;;;;;;1.77;0.53;;;12.20;99.90;;;;;;5094488;28;20175;-76
2023/01/04 07:37:31;;;;;;;4.23;1.30;;;12.20;99.90;;;;;;5094521;28;20182;-76
2023/01/04 07:39:57;;;;;;;3.10;0.50;;;12.20;99.90;;;;;;5094339;28;20228;-79
2023/01/04 07:42:22;;;;;;;2.80;0.80;;;12.20;99.90;;;;;;5076254;28;20671;-76
2023/01/04 07:44:48;;;;;;;3.17;0.67;;;12.20;99.90;;;;;;5094209;28;20163;-78
2023/01/04 07:47:14;;;;;;;2.10;0.50;;;12.30;99.90;;;;;;5076323;28;20237;-79
2023/01/04 07:49:39;;;;;;;2.40;0.63;;;12.30;99.90;;;;;;5094336;28;20166;-77
2023/01/04 07:52:05;;;;;;;2.90;0.90;;;12.30;99.90;;;;;;5076342;28;20532;-77
2023/01/04 07:54:30;;;;;;;3.20;0.90;;;12.40;99.90;;;;;;5093983;28;20256;-77
2023/01/04 07:56:56;;;;;;;2.33;0.70;;;12.40;99.90;;;;;;5093892;28;20678;-77
2023/01/04 07:59:22;;;;;;;1.57;0.57;;;12.30;99.90;;;;;;5094039;28;20166;-77
2023/01/04 08:01:49;;;;;;;1.77;0.80;;;12.40;99.90;;;;;;5093956;28;20180;-78
2023/01/04 08:04:15;;;;;;;2.63;0.60;;;12.30;99.90;;;;;;5093742;28;20228;-79
2023/01/04 08:06:42;;;;;;;3.93;1.10;;;12.30;99.90;;;;;;5075555;28;20206;-79
2023/01/04 08:09:10;;;;;;;2.90;0.73;;;12.20;99.90;;;;;;5075694;28;20633;-77
2023/01/04 08:11:35;;;;;;;1.63;0.70;;;12.10;99.90;;;;;;5093490;28;20577;-78
2023/01/04 08:14:01;;;;;;;1.47;0.53;;;12.10;99.90;;;;;;5075685;28;20179;-78
2023/01/04 08:16:30;;;;;;;3.30;0.93;;;12.00;99.90;;;;;;5075614;28;20554;-79
2023/01/04 08:18:58;;;;;;;2.70;0.80;;;12.00;99.90;;;;;;5093492;28;20186;-78
2023/01/04 08:21:24;;;;;;;2.37;0.77;;;12.10;99.90;;;;;;5093479;28;20199;-78
2023/01/04 08:23:51;;;;;;;2.70;0.67;;;12.10;99.90;;;;;;5093511;28;20175;-77
2023/01/04 08:26:17;;;;;;;2.13;0.60;;;12.10;99.90;;;;;;5093592;28;20212;-77
2023/01/04 08:28:44;;;;;;;1.90;0.70;;;12.00;99.90;;;;;;5093473;28;20171;-77
2023/01/04 08:31:26;;;;;;;2.80;0.80;;;12.00;99.90;;;;;;5093004;28;20189;-77
2023/01/04 08:33:53;;;;;;;0.87;0.50;;;12.10;99.90;;;;;;5075388;28;20656;-77
2023/01/04 08:36:22;;;;;;;5.13;1.07;;;12.10;99.90;;;;;;5093159;28;20174;-77
2023/01/04 08:38:50;;;;;;;2.10;0.80;;;12.20;99.90;;;;;;5093158;28;20213;-77
2023/01/04 08:41:17;;;;;;;3.03;0.90;;;12.30;99.90;;;;;;5093298;28;20186;-78
2023/01/04 08:43:43;;;;;;;1.33;0.57;;;12.30;99.90;;;;;;5075373;28;20185;-79
2023/01/04 08:46:09;;;;;;;2.53;0.70;;;12.20;99.90;;;;;;5093021;28;20207;-78
2023/01/04 08:48:35;;;;;;;2.53;1.07;;;12.20;99.90;;;;;;5075434;28;20213;-79
2023/01/04 08:51:04;;;;;;;4.03;0.90;;;12.30;99.90;;;;;;5093232;28;20556;-78
2023/01/04 08:53:30;;;;;;;4.20;0.77;;;12.40;99.90;;;;;;5075110;28;20177;-78
2023/01/04 08:55:57;;;;;;;2.43;1.00;;;12.40;99.90;;;;;;5074839;28;20174;-78
2023/01/04 08:58:23;;;;;;;2.37;0.80;;;12.50;99.90;;;;;;5093368;28;20170;-78
2023/01/04 09:00:49;;;;;;;2.60;0.80;;;12.50;99.90;;;;;;5092964;28;20202;-78
2023/01/04 09:03:15;;;;;;;4.37;1.00;;;12.60;99.90;;;;;;5093207;28;20266;-78
2023/01/04 09:05:40;;;;;;;2.40;0.90;;;12.60;99.90;;;;;;5092776;28;20282;-78
2023/01/04 09:08:06;;;;;;;2.93;0.90;;;12.60;99.90;;;;;;5093266;28;20245;-78
2023/01/04 09:10:32;;;;;;;6.53;1.13;;;12.70;99.90;;;;;;5093037;28;20171;-78
2023/01/04 09:12:59;;;;;;;4.77;0.80;;;12.70;99.90;;;;;;5074669;28;20658;-78
2023/01/04 09:15:25;;;;;;;1.77;1.00;;;12.80;99.90;;;;;;5092800;28;20250;-78
2023/01/04 09:17:50;;;;;;;4.00;0.93;;;12.70;99.90;;;;;;5074818;28;20637;-78
2023/01/04 09:20:16;;;;;;;1.83;0.70;;;12.70;99.90;;;;;;5093138;28;20163;-78
2023/01/04 09:22:42;;;;;;;4.77;1.07;;;12.80;99.90;;;;;;5092987;28;20181;-77
2023/01/04 09:25:08;;;;;;;3.30;1.73;;;12.80;99.90;;;;;;5093128;28;20171;-78
2023/01/04 09:27:34;;;;;;;3.27;1.30;;;12.70;99.90;;;;;;5074667;28;20175;-76
2023/01/04 09:29:59;;;;;;;6.70;1.40;;;12.60;99.90;;;;;;5093286;28;20654;-77
2023/01/04 09:32:25;;;;;;;6.17;2.03;;;12.70;99.90;;;;;;5074879;28;20216;-76
2023/01/04 09:34:51;;;;;;;2.23;0.80;;;12.70;99.90;;;;;;5093213;28;20637;-78
2023/01/04 09:37:17;;;;;;;2.07;0.83;;;12.60;99.90;;;;;;5093003;28;20181;-74
2023/01/04 09:39:43;;;;;;;6.13;1.50;;;12.60;99.90;;;;;;5074693;28;20181;-76
2023/01/04 09:42:21;;;;;;;5.87;0.93;;;12.60;99.90;;;;;;5096108;28;20167;-78
2023/01/04 09:44:55;;;;;;;3.70;1.10;;;12.60;99.90;;;;;;5096717;28;20167;-78
2023/01/04 09:47:21;;;;;;;2.63;0.80;;;12.60;99.90;;;;;;5078383;28;20182;-77
2023/01/04 09:49:53;;;;;;;2.77;0.80;;;12.50;99.90;;;;;;5096761;28;20174;-78
2023/01/04 09:52:23;;;;;;;3.07;0.63;;;12.40;99.90;;;;;;5096984;28;20249;-80
2023/01/04 09:54:58;;;;;;;3.50;0.77;;;12.40;99.90;;;;;;5078508;28;20181;-77
2023/01/04 09:57:50;;;;;;;4.43;0.77;;;12.40;99.90;;;;;;5096724;28;20541;-78
2023/01/04 10:00:20;;;;;;;2.00;0.80;;;12.40;99.90;;;;;;5078669;28;20542;-79
2023/01/04 10:02:53;;;;;;;2.17;0.57;;;12.30;99.90;;;;;;5096488;28;20539;-79
2023/01/04 10:05:24;;;;;;;2.30;0.63;;;12.40;99.90;;;;;;5096289;28;20542;-77
2023/01/04 10:07:50;;;;;;;3.07;1.13;;;12.40;99.90;;;;;;5078430;28;20190;-80
2023/01/04 10:10:26;;;;;;;4.20;0.47;;;12.50;99.90;;;;;;5096572;28;20567;-79
2023/01/04 10:13:32;;;;;;;3.00;0.90;;;12.40;99.90;;;;;;5096465;28;20176;-78
2023/01/04 10:16:08;;;;;;;3.97;0.93;;;12.50;99.90;;;;;;5096541;28;20173;-78
2023/01/04 10:19:02;;;;;;;3.57;0.70;;;12.50;99.90;;;;;;5096087;28;20183;-78
2023/01/04 10:21:40;;;;;;;3.27;0.80;;;12.30;99.90;;;;;;5096232;28;20182;-79
2023/01/04 10:24:06;;;;;;;1.90;0.70;;;12.30;99.90;;;;;;5096178;28;20189;-78
2023/01/04 10:26:50;;;;;;;4.13;0.90;;;12.40;99.90;;;;;;5096107;28;20199;-78
2023/01/04 10:29:25;;;;;;;3.67;1.73;;;12.40;99.90;;;;;;5095950;28;20174;-78
2023/01/04 10:32:36;;;;;;;5.47;1.47;;;12.40;99.90;;;;;;5096194;28;20301;-78
2023/01/04 10:35:26;;;;;;;6.10;1.03;;;12.30;99.90;;;;;;5091119;28;20221;-78
2023/01/04 10:38:03;;;;;;;4.03;0.87;;;12.40;99.90;;;;;;5095817;28;20176;-79
2023/01/04 10:40:36;;;;;;;2.70;0.80;;;12.30;99.90;;;;;;5077699;28;20189;-78
2023/01/04 10:43:29;;;;;;;2.47;0.70;;;12.30;99.90;;;;;;5095669;28;20175;-78
2023/01/04 10:46:05;;;;;;;4.03;0.77;;;12.20;99.90;;;;;;5095429;28;20216;-78
2023/01/04 10:48:49;;;;;;;3.20;0.70;;;12.30;99.90;;;;;;5077303;28;20182;-78
2023/01/04 10:51:24;;;;;;;2.20;0.70;;;12.30;99.90;;;;;;5078031;28;20537;-79
2023/01/04 10:54:01;;;;;;;2.20;0.70;;;12.40;99.90;;;;;;5094631;28;20248;-79
2023/01/04 10:56:29;;;;;;;4.10;1.40;;;12.40;99.90;;;;;;5096689;28;20174;-78
2023/01/04 10:59:14;;;;;;;4.43;0.90;;;12.40;99.90;;;;;;5077527;28;20712;-78
2023/01/04 11:01:42;;;;;;;2.77;0.80;;;12.40;99.90;;;;;;5095454;28;20174;-78
2023/01/04 11:04:35;;;;;;;4.10;0.90;;;12.40;99.90;;;;;;5094664;28;20667;-76
2023/01/04 11:07:19;;;;;;;5.27;1.40;;;12.40;99.90;;;;;;5028338;28;20218;-76
2023/01/04 11:10:00;;;;;;;3.63;1.33;;;12.40;99.90;;;;;;5076775;28;20210;-76
2023/01/04 11:12:25;;;;;;;3.87;1.53;;;12.40;99.90;;;;;;5076927;28;20551;-76
2023/01/04 11:14:51;;;;;;;1.10;0.60;;;12.40;99.90;;;;;;5094848;28;20180;-76
2023/01/04 11:17:19;;;;;;;2.63;0.83;;;12.40;99.90;;;;;;5076853;28;20182;-76
2023/01/04 11:19:46;;;;;;;2.47;1.40;;;12.40;99.90;;;;;;5076594;28;20590;-77
2023/01/04 11:22:15;;;;;;;3.17;1.53;;;12.40;99.90;;;;;;5077159;28;20196;-79
2023/01/04 11:24:44;;;;;;;3.63;1.13;;;12.30;99.90;;;;;;5076926;28;20183;-77
2023/01/04 11:27:18;;;;;;;2.80;0.90;;;12.40;99.90;;;;;;5094864;28;20198;-77
2023/01/04 11:30:02;;;;;;;3.93;1.20;;;12.30;99.90;;;;;;5076519;28;20186;-77
2023/01/04 11:32:54;;;;;;;2.77;1.20;;;12.50;99.90;;;;;;5076240;28;20183;-77
2023/01/04 11:35:47;;;;;;;2.37;0.90;;;12.40;99.90;;;;;;5076407;28;20187;-78
2023/01/04 11:38:22;;;;;;;4.17;1.23;;;12.40;99.90;;;;;;5095188;28;20245;-83
2023/01/04 11:40:58;;;;;;;2.73;1.23;;;12.40;99.90;;;;;;5095083;28;20192;-82
2023/01/04 11:43:32;;;;;;;3.27;1.20;;;12.30;99.90;;;;;;5095137;28;20183;-83
2023/01/04 11:46:04;;;;;;;2.77;1.47;;;12.30;99.90;;;;;;5077267;28;20251;-81
2023/01/04 11:48:38;;;;;;;3.00;2.20;;;12.30;99.90;;;;;;5076480;28;20199;-82
2023/01/04 11:51:05;;;;;;;2.77;1.67;;;12.30;99.90;;;;;;5076553;28;20184;-82
2023/01/04 11:53:33;;;;;;;1.77;1.10;;;12.40;99.90;;;;;;5076671;28;20168;-82
2023/01/04 11:56:19;;;;;;;3.33;1.33;;;12.50;99.90;;;;;;5076508;28;20183;-82
2023/01/04 11:59:02;;;;;;;2.03;1.13;;;12.40;99.90;;;;;;5076299;28;20171;-82
2023/01/04 12:01:28;;;;;;;5.17;3.33;;;12.40;99.90;;;;;;5075974;28;20185;-82
2023/01/04 12:03:55;;;;;;;3.60;1.80;;;12.40;99.90;;;;;;5094470;28;20648;-82
2023/01/04 12:06:37;;;;;;;5.43;2.90;;;12.40;99.90;;;;;;5094066;28;20609;-79
2023/01/04 12:09:04;;;;;;;3.47;1.70;;;12.40;99.90;;;;;;5094072;28;20264;-77
2023/01/04 12:11:34;;;;;;;1.67;1.10;;;12.50;99.90;;;;;;5093879;28;20164;-77
2023/01/04 12:14:02;;;;;;;1.53;0.83;;;12.50;99.90;;;;;;5093735;28;20180;-78
2023/01/04 12:16:56;;;;;;;5.07;2.33;;;12.50;99.90;;;;;;5075410;28;20175;-77
2023/01/04 12:19:23;;;;;;;4.10;3.27;;;12.50;99.90;;;;;;5094201;28;20180;-80
2023/01/04 12:21:54;;;;;;;6.47;3.97;;;12.40;99.90;;;;;;5093735;28;20180;-79
2023/01/04 12:24:30;;;;;;;1.83;1.00;;;12.50;99.90;;;;;;5093865;28;20179;-79
2023/01/04 12:26:58;;;;;;;9.30;4.00;;;12.50;99.90;;;;;;5094226;28;20275;-80
2023/01/04 12:29:31;;;;;;;3.73;1.40;;;12.50;99.90;;;;;;5076012;28;20181;-79
2023/01/04 12:32:00;;;;;;;6.13;2.00;;;12.50;99.90;;;;;;5093288;28;20301;-80
2023/01/04 12:34:27;;;;;;;2.87;1.27;;;12.60;99.90;;;;;;5075484;28;20174;-79
2023/01/04 12:36:56;;;;;;;2.20;1.57;;;12.60;99.90;;;;;;5075317;28;20241;-80
2023/01/04 12:39:22;;;;;;;3.30;1.30;;;12.60;99.90;;;;;;5093587;28;20167;-80
2023/01/04 12:42:00;;;;;;;3.10;1.50;;;12.70;99.90;;;;;;5093780;28;20216;-80
2023/01/04 12:44:50;;;;;;;1.50;1.00;;;12.80;99.90;;;;;;5075815;28;20189;-79
2023/01/04 12:50:10;;;;;;;2.37;1.00;;;12.70;99.90;;;;;;5094221;28;20328;-79
2023/01/04 12:52:57;;;;;;;1.97;1.00;;;12.70;99.90;;;;;;5075653;28;20168;-80
2023/01/04 12:55:30;;;;;;;3.77;2.37;;;12.70;99.90;;;;;;5075311;28;20183;-80
2023/01/04 12:57:57;;;;;;;4.07;1.97;;;12.60;99.90;;;;;;5075220;28;20215;-80
2023/01/04 13:00:42;;;;;;;5.03;2.00;;;12.70;99.90;;;;;;5074988;28;20213;-80
2023/01/04 13:03:14;;;;;;;3.30;1.30;;;12.80;99.90;;;;;;5092823;28;20194;-80
2023/01/04 13:05:44;;;;;;;1.83;1.10;;;12.80;99.90;;;;;;5074904;28;20206;-80
2023/01/04 13:08:13;;;;;;;3.63;1.20;;;12.80;99.90;;;;;;5074920;28;20177;-80
2023/01/04 13:10:54;;;;;;;2.37;0.77;;;12.80;99.90;;;;;;5093074;28;20169;-79
2023/01/04 13:13:37;;;;;;;1.67;1.10;;;12.80;99.90;;;;;;5093032;28;20555;-80
2023/01/04 13:16:18;;;;;;;3.03;1.30;;;12.80;99.90;;;;;;5092305;28;20176;-81
2023/01/04 13:18:44;;;;;;;3.67;1.20;;;12.80;99.90;;;;;;5093301;28;20245;-80
2023/01/04 13:21:16;;;;;;;1.67;0.83;;;12.80;99.90;;;;;;5092767;28;20261;-80
2023/01/04 13:24:04;;;;;;;1.87;1.00;;;12.70;99.90;;;;;;5093696;28;20570;-79
2023/01/04 13:26:47;;;;;;;2.93;1.00;;;12.90;99.90;;;;;;5075208;28;20235;-79
2023/01/04 13:29:27;;;;;;;2.13;0.90;;;12.80;99.90;;;;;;5092761;28;20194;-79
2023/01/04 13:32:12;;;;;;;1.93;0.80;;;12.90;99.90;;;;;;5092883;28;20270;-79
2023/01/04 13:34:51;;;;;;;2.83;1.10;;;13.10;99.90;;;;;;5074439;28;20238;-79
2023/01/04 13:37:36;;;;;;;5.03;1.10;;;13.10;99.90;;;;;;5074427;28;20172;-80
2023/01/04 13:40:20;;;;;;;1.53;1.20;;;13.00;99.90;;;;;;5092829;28;20172;-80
2023/01/04 13:43:08;;;;;;;2.83;1.20;;;13.00;99.90;;;;;;5074474;28;20192;-80
2023/01/04 13:45:36;;;;;;;2.70;1.00;;;13.10;99.90;;;;;;5024193;28;20559;-80
2023/01/04 13:48:07;;;;;;;1.67;0.90;;;13.10;99.90;;;;;;5092342;28;20170;-81
2023/01/04 13:50:33;;;;;;;4.13;1.57;;;13.10;99.90;;;;;;5074288;28;20184;-81
2023/01/04 13:53:00;;;;;;;4.17;1.23;;;13.00;99.90;;;;;;5074337;28;20267;-81
2023/01/04 13:55:35;;;;;;;2.10;1.10;;;13.20;99.90;;;;;;5092197;28;20233;-81
2023/01/04 13:58:14;;;;;;;2.20;0.90;;;13.20;99.90;;;;;;5092026;28;20246;-82